Time;durP1;ratioP1;P1;durP2;ratioP2;P2;SDS_P1;SDS_P2;PMS_P1;PMS_P2;Temp;Humidity;BMP_temperature;BMP_pressure;BME280_temperature;BME280_humidity;BME280_pressure;Samples;Min_cycle;Max_cycle;Signal;HPM_P1;HPM_P2
2021/11/28 00:01:33;;;;;;;1999.90;999.90;;;;;;;;;;4953936;29;20296;-71
2021/11/28 00:04:19;;;;;;;1999.90;999.90;;;;;;;;;;4954116;29;20283;-73
2021/11/28 00:07:06;;;;;;;1999.90;999.90;;;;;;;;;;4954054;29;20213;-73
2021/11/28 00:10:00;;;;;;;1999.90;999.90;;;;;;;;;;4953712;29;20330;-71
2021/11/28 00:12:46;;;;;;;1999.90;999.90;;;;;;;;;;4953958;29;20793;-71
2021/11/28 00:15:31;;;;;;;1999.90;999.90;;;;;;;;;;4953798;29;20273;-71
2021/11/28 00:18:18;;;;;;;1999.90;999.90;;;;;;;;;;4953385;29;20322;-75
2021/11/28 00:21:05;;;;;;;1999.90;999.90;;;;;;;;;;4953938;29;20718;-71
2021/11/28 00:23:50;;;;;;;1999.90;999.90;;;;;;;;;;4952609;29;20399;-72
2021/11/28 00:26:35;;;;;;;1999.90;999.90;;;;;;;;;;4953750;29;20308;-71
2021/11/28 00:29:20;;;;;;;1999.90;999.90;;;;;;;;;;4953517;29;20322;-71
2021/11/28 00:32:05;;;;;;;1999.90;999.90;;;;;;;;;;4953678;29;20292;-71
2021/11/28 00:34:51;;;;;;;1999.90;999.90;;;;;;;;;;4953744;29;20212;-72
2021/11/28 00:37:38;;;;;;;1999.90;999.90;;;;;;;;;;4953405;29;20756;-70
2021/11/28 00:40:23;;;;;;;1999.90;999.90;;;;;;;;;;4953363;29;20639;-70
2021/11/28 00:43:08;;;;;;;1999.90;999.90;;;;;;;;;;4953689;29;20219;-71
2021/11/28 00:45:52;;;;;;;1999.90;999.90;;;;;;;;;;4953587;29;20200;-73
2021/11/28 00:48:41;;;;;;;1999.90;999.90;;;;;;;;;;4953348;29;20257;-70
2021/11/28 00:51:47;;;;;;;1999.90;999.90;;;;;;;;;;4953528;29;20597;-71
2021/11/28 00:54:33;;;;;;;1999.90;999.90;;;;;;;;;;4955721;28;20264;-71
2021/11/28 00:57:18;;;;;;;1999.90;999.90;;;;;;;;;;4957247;29;20307;-71
2021/11/28 01:00:05;;;;;;;1999.90;999.90;;;;;;;;;;4957214;29;20338;-71
2021/11/28 01:02:51;;;;;;;1999.90;999.90;;;;;;;;;;4957133;29;20244;-70
2021/11/28 01:05:36;;;;;;;1999.90;999.90;;;;;;;;;;4957168;29;20228;-73
2021/11/28 01:08:21;;;;;;;1999.90;999.90;;;;;;;;;;4956825;29;20208;-71
2021/11/28 01:11:07;;;;;;;1999.90;999.90;;;;;;;;;;4964543;28;20251;-71
2021/11/28 01:13:52;;;;;;;1999.90;999.90;;;;;;;;;;4976145;28;20208;-71
2021/11/28 01:16:38;;;;;;;1999.90;999.90;;;;;;;;;;4976306;28;20305;-71
2021/11/28 01:19:23;;;;;;;1999.90;999.90;;;;;;;;;;4974660;28;20517;-72
2021/11/28 01:22:09;;;;;;;1999.90;999.90;;;;;;;;;;4970685;28;20229;-71
2021/11/28 01:24:54;;;;;;;1999.90;999.90;;;;;;;;;;4975948;28;20209;-69
2021/11/28 01:27:40;;;;;;;1999.90;999.90;;;;;;;;;;4975820;28;20233;-73
2021/11/28 01:30:25;;;;;;;1999.90;999.90;;;;;;;;;;4971009;28;20305;-70
2021/11/28 01:33:10;;;;;;;1999.90;999.90;;;;;;;;;;4976087;28;20214;-71
2021/11/28 01:35:57;;;;;;;1999.90;999.90;;;;;;;;;;4975774;28;20629;-71
2021/11/28 01:38:42;;;;;;;1999.90;999.90;;;;;;;;;;4975357;28;20782;-71
2021/11/28 01:41:27;;;;;;;1999.90;999.90;;;;;;;;;;4975876;28;20227;-71
2021/11/28 01:44:13;;;;;;;1999.90;999.90;;;;;;;;;;4974653;28;20777;-71
2021/11/28 01:46:58;;;;;;;1999.90;999.90;;;;;;;;;;4975864;28;20205;-71
2021/11/28 01:49:43;;;;;;;1999.90;999.90;;;;;;;;;;4975484;28;20699;-71
2021/11/28 01:52:28;;;;;;;1999.90;999.90;;;;;;;;;;4975723;28;20236;-70
2021/11/28 01:55:15;;;;;;;1999.90;999.90;;;;;;;;;;4975672;28;20740;-71
2021/11/28 01:58:00;;;;;;;1999.90;999.90;;;;;;;;;;4975167;28;20598;-71
2021/11/28 02:00:47;;;;;;;1999.90;999.90;;;;;;;;;;4975465;28;20287;-71
2021/11/28 02:03:36;;;;;;;1999.90;999.90;;;;;;;;;;4975570;28;20287;-71
2021/11/28 02:06:21;;;;;;;1999.90;999.90;;;;;;;;;;4975151;28;20291;-71
2021/11/28 02:09:06;;;;;;;1999.90;999.90;;;;;;;;;;4974840;28;20271;-72
2021/11/28 02:11:51;;;;;;;1999.90;999.90;;;;;;;;;;4975340;28;20299;-71
2021/11/28 02:14:36;;;;;;;1999.90;999.90;;;;;;;;;;4975432;28;20204;-71
2021/11/28 02:17:23;;;;;;;1999.90;999.90;;;;;;;;;;4975125;28;20231;-71
2021/11/28 02:20:08;;;;;;;1999.90;999.90;;;;;;;;;;4974890;28;20756;-71
2021/11/28 02:22:55;;;;;;;1999.90;999.90;;;;;;;;;;4975082;28;20340;-71
2021/11/28 02:25:41;;;;;;;1999.90;999.90;;;;;;;;;;4975061;28;20211;-71
2021/11/28 02:28:26;;;;;;;1999.90;999.90;;;;;;;;;;4974602;28;20208;-71
2021/11/28 02:31:11;;;;;;;1999.90;999.90;;;;;;;;;;4974779;28;20227;-71
2021/11/28 02:33:56;;;;;;;1999.90;999.90;;;;;;;;;;4974895;28;20329;-71
2021/11/28 02:36:41;;;;;;;1999.90;999.90;;;;;;;;;;4974905;28;20287;-71
2021/11/28 02:39:28;;;;;;;1999.90;999.90;;;;;;;;;;4974218;28;20232;-72
2021/11/28 02:42:16;;;;;;;1999.90;999.90;;;;;;;;;;4974645;28;20279;-71
2021/11/28 02:45:01;;;;;;;1999.90;999.90;;;;;;;;;;4974830;28;20212;-69
2021/11/28 02:47:46;;;;;;;1999.90;999.90;;;;;;;;;;4974422;28;20207;-71
2021/11/28 02:50:32;;;;;;;1999.90;999.90;;;;;;;;;;4974573;28;20255;-69
2021/11/28 02:53:17;;;;;;;1999.90;999.90;;;;;;;;;;4974332;28;20204;-71
2021/11/28 02:56:05;;;;;;;1999.90;999.90;;;;;;;;;;4974656;28;20200;-71
2021/11/28 02:58:50;;;;;;;1999.90;999.90;;;;;;;;;;4973909;28;20228;-71
2021/11/28 03:01:35;;;;;;;1999.90;999.90;;;;;;;;;;4974280;28;20592;-70
2021/11/28 03:04:20;;;;;;;1999.90;999.90;;;;;;;;;;4974337;28;20204;-71
2021/11/28 03:07:05;;;;;;;1999.90;999.90;;;;;;;;;;4973158;28;20431;-71
2021/11/28 03:09:50;;;;;;;1999.90;999.90;;;;;;;;;;4972662;28;20207;-71
2021/11/28 03:12:37;;;;;;;1999.90;999.90;;;;;;;;;;4967551;28;20405;-71
2021/11/28 03:15:24;;;;;;;1999.90;999.90;;;;;;;;;;4973385;28;20220;-74
2021/11/28 03:18:11;;;;;;;1999.90;999.90;;;;;;;;;;4984675;28;20238;-72
2021/11/28 03:20:57;;;;;;;1999.90;999.90;;;;;;;;;;4970505;28;20826;-68
2021/11/28 03:23:43;;;;;;;1999.90;999.90;;;;;;;;;;4954415;28;20335;-71
2021/11/28 03:26:31;;;;;;;1999.90;999.90;;;;;;;;;;4964512;28;20209;-68
2021/11/28 03:29:18;;;;;;;1999.90;999.90;;;;;;;;;;4969247;28;20200;-70
2021/11/28 03:32:03;;;;;;;1999.90;999.90;;;;;;;;;;4973624;28;20259;-71
2021/11/28 03:34:48;;;;;;;1999.90;999.90;;;;;;;;;;4958571;28;20221;-71
2021/11/28 03:37:33;;;;;;;1999.90;999.90;;;;;;;;;;4961213;28;20219;-71
2021/11/28 03:40:18;;;;;;;1999.90;999.90;;;;;;;;;;4973585;28;20216;-71
2021/11/28 03:43:03;;;;;;;1999.90;999.90;;;;;;;;;;4973575;28;20227;-71
2021/11/28 03:45:50;;;;;;;1999.90;999.90;;;;;;;;;;4977865;28;20706;-68
2021/11/28 03:48:35;;;;;;;1999.90;999.90;;;;;;;;;;4970411;28;20791;-70
2021/11/28 03:51:20;;;;;;;1999.90;999.90;;;;;;;;;;4975479;28;20223;-70
2021/11/28 03:54:05;;;;;;;1999.90;999.90;;;;;;;;;;4971422;28;20203;-71
2021/11/28 03:56:50;;;;;;;1999.90;999.90;;;;;;;;;;4982154;28;20207;-67
2021/11/28 03:59:35;;;;;;;1999.90;999.90;;;;;;;;;;4964611;28;20323;-72
2021/11/28 04:02:21;;;;;;;1999.90;999.90;;;;;;;;;;4972536;28;20239;-72
2021/11/28 04:05:07;;;;;;;1999.90;999.90;;;;;;;;;;4971781;28;20411;-71
2021/11/28 04:07:53;;;;;;;1999.90;999.90;;;;;;;;;;4969248;28;20306;-71
2021/11/28 04:10:38;;;;;;;1999.90;999.90;;;;;;;;;;4975626;28;20263;-68
2021/11/28 04:13:23;;;;;;;1999.90;999.90;;;;;;;;;;4986868;28;20341;-70
2021/11/28 04:16:11;;;;;;;1999.90;999.90;;;;;;;;;;4991154;28;20690;-71
2021/11/28 04:18:59;;;;;;;1999.90;999.90;;;;;;;;;;4990732;28;20315;-72
2021/11/28 04:21:45;;;;;;;1999.90;999.90;;;;;;;;;;4991948;28;20235;-71
2021/11/28 04:24:30;;;;;;;1999.90;999.90;;;;;;;;;;4992566;28;20593;-71
2021/11/28 04:27:15;;;;;;;1999.90;999.90;;;;;;;;;;4992017;28;20315;-71
2021/11/28 04:30:00;;;;;;;1999.90;999.90;;;;;;;;;;4991380;28;20477;-70
2021/11/28 04:32:46;;;;;;;1999.90;999.90;;;;;;;;;;4992050;28;20749;-71
2021/11/28 04:35:33;;;;;;;1999.90;999.90;;;;;;;;;;4992358;28;20209;-73
2021/11/28 04:38:18;;;;;;;1999.90;999.90;;;;;;;;;;4992002;28;20584;-71
2021/11/28 04:41:03;;;;;;;1999.90;999.90;;;;;;;;;;4992278;28;20239;-71
2021/11/28 04:43:48;;;;;;;1999.90;999.90;;;;;;;;;;4992096;28;20210;-71
2021/11/28 04:46:33;;;;;;;1999.90;999.90;;;;;;;;;;4992305;28;20255;-71
2021/11/28 04:49:18;;;;;;;1999.90;999.90;;;;;;;;;;4991973;28;20204;-70
2021/11/28 04:52:04;;;;;;;1999.90;999.90;;;;;;;;;;4992468;28;20226;-70
2021/11/28 04:54:51;;;;;;;1999.90;999.90;;;;;;;;;;4992190;28;20207;-71
2021/11/28 04:57:36;;;;;;;1999.90;999.90;;;;;;;;;;4992048;28;20206;-70
2021/11/28 05:00:23;;;;;;;1999.90;999.90;;;;;;;;;;4992172;28;20681;-69
2021/11/28 05:03:08;;;;;;;1999.90;999.90;;;;;;;;;;4992287;28;20234;-71
2021/11/28 05:05:53;;;;;;;1999.90;999.90;;;;;;;;;;4992018;28;20652;-70
2021/11/28 05:08:40;;;;;;;1999.90;999.90;;;;;;;;;;4991996;28;20204;-71
2021/11/28 05:11:25;;;;;;;1999.90;999.90;;;;;;;;;;4992381;28;20227;-70
2021/11/28 05:14:10;;;;;;;1999.90;999.90;;;;;;;;;;4992177;28;20211;-71
2021/11/28 05:16:55;;;;;;;1999.90;999.90;;;;;;;;;;4992242;28;20713;-71
2021/11/28 05:19:39;;;;;;;1999.90;999.90;;;;;;;;;;4991515;28;20230;-71
2021/11/28 05:22:24;;;;;;;1999.90;999.90;;;;;;;;;;4991877;28;20351;-71
2021/11/28 05:25:11;;;;;;;1999.90;999.90;;;;;;;;;;4992010;28;20211;-71
2021/11/28 05:27:56;;;;;;;1999.90;999.90;;;;;;;;;;4991792;28;20704;-69
2021/11/28 05:30:41;;;;;;;1999.90;999.90;;;;;;;;;;4990608;28;20409;-73
2021/11/28 05:33:26;;;;;;;1999.90;999.90;;;;;;;;;;4992024;28;20278;-70
2021/11/28 05:36:11;;;;;;;1999.90;999.90;;;;;;;;;;4992044;28;20581;-69
2021/11/28 05:38:56;;;;;;;1999.90;999.90;;;;;;;;;;4991300;28;20318;-71
2021/11/28 05:41:42;;;;;;;1999.90;999.90;;;;;;;;;;4995369;28;20351;-71
2021/11/28 05:44:27;;;;;;;1999.90;999.90;;;;;;;;;;4995380;28;20247;-70
2021/11/28 05:47:12;;;;;;;1999.90;999.90;;;;;;;;;;4995290;28;20219;-73
2021/11/28 05:49:59;;;;;;;1999.90;999.90;;;;;;;;;;4994998;28;20627;-69
2021/11/28 05:52:44;;;;;;;1999.90;999.90;;;;;;;;;;4994990;28;20413;-71
2021/11/28 05:55:28;;;;;;;1999.90;999.90;;;;;;;;;;4995129;28;20207;-71
2021/11/28 05:58:15;;;;;;;1999.90;999.90;;;;;;;;;;4994810;28;20684;-71
2021/11/28 06:01:00;;;;;;;1999.90;999.90;;;;;;;;;;4994866;28;20207;-71
2021/11/28 06:03:45;;;;;;;1999.90;999.90;;;;;;;;;;4994948;28;20226;-72
2021/11/28 06:06:30;;;;;;;1999.90;999.90;;;;;;;;;;4994898;28;20258;-71
2021/11/28 06:09:15;;;;;;;1999.90;999.90;;;;;;;;;;4994582;28;20199;-70
2021/11/28 06:12:00;;;;;;;1999.90;999.90;;;;;;;;;;4994475;28;20226;-71
2021/11/28 06:14:46;;;;;;;1999.90;999.90;;;;;;;;;;4994714;28;20207;-71
2021/11/28 06:17:31;;;;;;;1999.90;999.90;;;;;;;;;;4994441;28;20207;-71
2021/11/28 06:20:16;;;;;;;1999.90;999.90;;;;;;;;;;4994413;28;20243;-71
2021/11/28 06:23:01;;;;;;;1999.90;999.90;;;;;;;;;;4994246;28;20227;-71
2021/11/28 06:25:46;;;;;;;1999.90;999.90;;;;;;;;;;4994639;28;20265;-70
2021/11/28 06:28:31;;;;;;;1999.90;999.90;;;;;;;;;;4994294;28;20589;-70
2021/11/28 06:31:17;;;;;;;1999.90;999.90;;;;;;;;;;4994472;28;20235;-70
2021/11/28 06:34:02;;;;;;;1999.90;999.90;;;;;;;;;;4994175;28;20212;-72
2021/11/28 06:36:47;;;;;;;1999.90;999.90;;;;;;;;;;4994481;28;20206;-72
2021/11/28 06:39:32;;;;;;;1999.90;999.90;;;;;;;;;;4993919;28;20215;-71
2021/11/28 06:42:17;;;;;;;1999.90;999.90;;;;;;;;;;4994409;28;20223;-70
2021/11/28 06:45:02;;;;;;;1999.90;999.90;;;;;;;;;;4994181;28;20203;-72
2021/11/28 06:47:48;;;;;;;1999.90;999.90;;;;;;;;;;4994033;28;20207;-71
2021/11/28 06:50:33;;;;;;;1999.90;999.90;;;;;;;;;;4993999;28;20750;-70
2021/11/28 06:53:18;;;;;;;1999.90;999.90;;;;;;;;;;4994132;28;20227;-70
2021/11/28 06:56:04;;;;;;;1999.90;999.90;;;;;;;;;;4994011;28;20210;-72
2021/11/28 06:58:49;;;;;;;1999.90;999.90;;;;;;;;;;4993837;28;20223;-69
2021/11/28 07:01:34;;;;;;;1999.90;999.90;;;;;;;;;;4993775;28;20300;-70
2021/11/28 07:04:22;;;;;;;1999.90;999.90;;;;;;;;;;4986459;28;20208;-70
2021/11/28 07:07:09;;;;;;;1999.90;999.90;;;;;;;;;;4967327;28;20216;-69
2021/11/28 07:09:54;;;;;;;1999.90;999.90;;;;;;;;;;4977614;28;20324;-70
2021/11/28 07:12:39;;;;;;;1999.90;999.90;;;;;;;;;;4972722;28;20308;-70
2021/11/28 07:15:24;;;;;;;1999.90;999.90;;;;;;;;;;4985054;28;20631;-71
2021/11/28 07:18:09;;;;;;;1999.90;999.90;;;;;;;;;;4991037;28;20410;-70
2021/11/28 07:20:55;;;;;;;1999.90;999.90;;;;;;;;;;4971459;28;20196;-68
2021/11/28 07:23:41;;;;;;;1999.90;999.90;;;;;;;;;;4973493;28;20256;-67
2021/11/28 07:26:26;;;;;;;1999.90;999.90;;;;;;;;;;4985499;28;20207;-70
2021/11/28 07:29:11;;;;;;;1999.90;999.90;;;;;;;;;;4990946;28;20582;-71
2021/11/28 07:31:56;;;;;;;1999.90;999.90;;;;;;;;;;4991142;28;20274;-70
2021/11/28 07:34:41;;;;;;;1999.90;999.90;;;;;;;;;;4991092;28;20215;-70
2021/11/28 07:37:29;;;;;;;1999.90;999.90;;;;;;;;;;4981171;28;20212;-66
2021/11/28 07:40:15;;;;;;;1999.90;999.90;;;;;;;;;;4970292;28;20232;-70
2021/11/28 07:43:01;;;;;;;1999.90;999.90;;;;;;;;;;4971639;28;20228;-67
2021/11/28 07:45:46;;;;;;;1999.90;999.90;;;;;;;;;;4973145;28;20211;-71
2021/11/28 07:48:31;;;;;;;1999.90;999.90;;;;;;;;;;4982660;28;20212;-67
2021/11/28 07:51:16;;;;;;;1999.90;999.90;;;;;;;;;;4971517;28;20359;-69
2021/11/28 07:54:02;;;;;;;1999.90;999.90;;;;;;;;;;4967728;28;20231;-70
2021/11/28 07:56:47;;;;;;;1999.90;999.90;;;;;;;;;;4969309;28;20215;-70
2021/11/28 07:59:34;;;;;;;1999.90;999.90;;;;;;;;;;4978188;28;20625;-70
2021/11/28 08:02:19;;;;;;;1999.90;999.90;;;;;;;;;;4979063;28;20235;-71
2021/11/28 08:05:05;;;;;;;1999.90;999.90;;;;;;;;;;4960994;28;20762;-68
2021/11/28 08:07:50;;;;;;;1999.90;999.90;;;;;;;;;;4971631;28;20220;-71
2021/11/28 08:10:36;;;;;;;1999.90;999.90;;;;;;;;;;4970376;28;20208;-69
2021/11/28 08:13:21;;;;;;;1999.90;999.90;;;;;;;;;;4973202;28;20204;-70
2021/11/28 08:16:06;;;;;;;1999.90;999.90;;;;;;;;;;4967982;28;20215;-70
2021/11/28 08:18:51;;;;;;;1999.90;999.90;;;;;;;;;;4961062;28;20225;-70
2021/11/28 08:21:36;;;;;;;1999.90;999.90;;;;;;;;;;4961453;28;20240;-72
2021/11/28 08:24:21;;;;;;;1999.90;999.90;;;;;;;;;;4968737;28;20216;-70
2021/11/28 08:27:07;;;;;;;1999.90;999.90;;;;;;;;;;4963846;28;20735;-69
2021/11/28 08:29:53;;;;;;;1999.90;999.90;;;;;;;;;;4968368;28;20714;-72
2021/11/28 08:32:39;;;;;;;1999.90;999.90;;;;;;;;;;4961250;28;20595;-70
2021/11/28 08:35:24;;;;;;;1999.90;999.90;;;;;;;;;;4969783;28;20220;-71
2021/11/28 08:38:09;;;;;;;1999.90;999.90;;;;;;;;;;4964189;28;20873;-72
2021/11/28 08:40:54;;;;;;;1999.90;999.90;;;;;;;;;;4965329;28;20443;-70
2021/11/28 08:43:42;;;;;;;1999.90;999.90;;;;;;;;;;4967636;28;20211;-69
2021/11/28 08:46:27;;;;;;;1999.90;999.90;;;;;;;;;;4963542;28;20291;-71
2021/11/28 08:49:13;;;;;;;1999.90;999.90;;;;;;;;;;4968724;28;20794;-69
2021/11/28 08:51:59;;;;;;;1999.90;999.90;;;;;;;;;;4961264;28;20590;-70
2021/11/28 08:54:44;;;;;;;1999.90;999.90;;;;;;;;;;4967239;28;20208;-70
2021/11/28 08:57:29;;;;;;;1999.90;999.90;;;;;;;;;;4968448;28;20204;-70
2021/11/28 09:00:16;;;;;;;1999.90;999.90;;;;;;;;;;4972366;28;20235;-71
2021/11/28 09:03:01;;;;;;;1999.90;999.90;;;;;;;;;;4964754;28;20255;-71
2021/11/28 09:05:47;;;;;;;1999.90;999.90;;;;;;;;;;4972650;28;20921;-70
2021/11/28 09:08:31;;;;;;;1999.90;999.90;;;;;;;;;;4972006;28;20203;-71
2021/11/28 09:11:17;;;;;;;1999.90;999.90;;;;;;;;;;4969004;28;20236;-71
2021/11/28 09:14:02;;;;;;;1999.90;999.90;;;;;;;;;;4962491;28;20219;-70
2021/11/28 09:16:48;;;;;;;1999.90;999.90;;;;;;;;;;4970035;28;20216;-71
2021/11/28 09:19:41;;;;;;;1999.90;999.90;;;;;;;;;;4975618;28;20228;-70
2021/11/28 09:24:23;;;;;;;1999.90;999.90;;;;;;;;;;4975559;28;20232;-71
2021/11/28 09:25:37;;;;;;;1999.90;999.90;;;;;;;;;;4969884;28;20588;-71
2021/11/28 09:28:22;;;;;;;1999.90;999.90;;;;;;;;;;4975716;28;20212;-72
2021/11/28 09:31:10;;;;;;;1999.90;999.90;;;;;;;;;;4976305;28;20340;-72
2021/11/28 09:33:56;;;;;;;1999.90;999.90;;;;;;;;;;4976086;28;20290;-72
2021/11/28 09:36:41;;;;;;;1999.90;999.90;;;;;;;;;;4974018;28;20289;-72
2021/11/28 09:39:26;;;;;;;1999.90;999.90;;;;;;;;;;4968900;28;20257;-72
2021/11/28 09:42:17;;;;;;;1999.90;999.90;;;;;;;;;;4973695;28;20248;-72
2021/11/28 09:45:01;;;;;;;1999.90;999.90;;;;;;;;;;4956563;29;20204;-73
2021/11/28 09:47:47;;;;;;;1999.90;999.90;;;;;;;;;;4973506;28;20295;-72
2021/11/28 09:50:33;;;;;;;1999.90;999.90;;;;;;;;;;4975929;28;20259;-73
2021/11/28 09:53:18;;;;;;;1999.90;999.90;;;;;;;;;;4956238;28;20209;-75
2021/11/28 09:56:04;;;;;;;1999.90;999.90;;;;;;;;;;4956138;29;20238;-71
2021/11/28 09:58:49;;;;;;;1999.90;999.90;;;;;;;;;;4955910;29;20585;-71
2021/11/28 10:01:35;;;;;;;1999.90;999.90;;;;;;;;;;4955612;29;20804;-73
2021/11/28 10:04:20;;;;;;;1999.90;999.90;;;;;;;;;;4956274;29;20212;-72
2021/11/28 10:07:07;;;;;;;1999.90;999.90;;;;;;;;;;4957154;28;20584;-72
2021/11/28 10:09:52;;;;;;;1999.90;999.90;;;;;;;;;;4975079;28;20210;-71
2021/11/28 10:12:41;;;;;;;1999.90;999.90;;;;;;;;;;4973371;28;20233;-73
2021/11/28 10:15:27;;;;;;;1999.90;999.90;;;;;;;;;;4975375;28;20240;-72
2021/11/28 10:18:12;;;;;;;1999.90;999.90;;;;;;;;;;4961636;28;20205;-71
2021/11/28 10:20:57;;;;;;;1999.90;999.90;;;;;;;;;;4970773;28;20237;-70
2021/11/28 10:24:01;;;;;;;1999.90;999.90;;;;;;;;;;4969277;28;20695;-69
2021/11/28 10:26:59;;;;;;;1999.90;999.90;;;;;;;;;;4983485;28;20270;-70
2021/11/28 10:29:45;;;;;;;1999.90;999.90;;;;;;;;;;4994192;28;20715;-72
2021/11/28 10:32:30;;;;;;;1999.90;999.90;;;;;;;;;;4968532;28;20337;-70
2021/11/28 10:35:15;;;;;;;1999.90;999.90;;;;;;;;;;4974095;28;20344;-71
2021/11/28 10:38:09;;;;;;;1999.90;999.90;;;;;;;;;;4974753;28;20217;-70
2021/11/28 10:40:55;;;;;;;1999.90;999.90;;;;;;;;;;4974617;28;20676;-71
2021/11/28 10:43:41;;;;;;;1999.90;999.90;;;;;;;;;;4974760;28;20334;-72
2021/11/28 10:46:28;;;;;;;1999.90;999.90;;;;;;;;;;4965273;28;20230;-70
2021/11/28 10:49:14;;;;;;;1999.90;999.90;;;;;;;;;;4970173;28;20216;-71
2021/11/28 10:52:07;;;;;;;1999.90;999.90;;;;;;;;;;4974609;28;20601;-71
2021/11/28 10:54:55;;;;;;;1999.90;999.90;;;;;;;;;;4974822;28;20701;-71
2021/11/28 10:57:40;;;;;;;1999.90;999.90;;;;;;;;;;4972936;28;20430;-70
2021/11/28 11:00:26;;;;;;;1999.90;999.90;;;;;;;;;;4974527;28;20287;-71
2021/11/28 11:03:15;;;;;;;1999.90;999.90;;;;;;;;;;4955240;29;20732;-70
2021/11/28 11:06:13;;;;;;;1999.90;999.90;;;;;;;;;;4955292;29;20245;-71
2021/11/28 11:09:14;;;;;;;1999.90;999.90;;;;;;;;;;4954613;29;20212;-71
2021/11/28 11:12:16;;;;;;;1999.90;999.90;;;;;;;;;;4954929;29;20227;-71
2021/11/28 11:15:01;;;;;;;1999.90;999.90;;;;;;;;;;4970961;28;20256;-71
2021/11/28 11:17:57;;;;;;;1999.90;999.90;;;;;;;;;;4973220;28;20218;-74
2021/11/28 11:20:43;;;;;;;1999.90;999.90;;;;;;;;;;4973724;28;20220;-70
2021/11/28 11:23:32;;;;;;;1999.90;999.90;;;;;;;;;;4973511;28;20430;-72
2021/11/28 11:26:19;;;;;;;1999.90;999.90;;;;;;;;;;4974081;28;20588;-72
2021/11/28 11:29:07;;;;;;;1999.90;999.90;;;;;;;;;;4958612;28;20206;-75
2021/11/28 11:31:54;;;;;;;1999.90;999.90;;;;;;;;;;4972833;28;20892;-72
2021/11/28 11:34:48;;;;;;;1999.90;999.90;;;;;;;;;;4967565;28;20216;-72
2021/11/28 11:37:32;;;;;;;1999.90;999.90;;;;;;;;;;4972305;28;20710;-71
2021/11/28 11:40:19;;;;;;;1999.90;999.90;;;;;;;;;;4973379;28;20224;-71
2021/11/28 11:43:04;;;;;;;1999.90;999.90;;;;;;;;;;4972641;28;20232;-72
2021/11/28 11:45:50;;;;;;;1999.90;999.90;;;;;;;;;;4972162;28;20216;-71
2021/11/28 11:48:35;;;;;;;1999.90;999.90;;;;;;;;;;4972766;28;20213;-70
2021/11/28 11:51:21;;;;;;;1999.90;999.90;;;;;;;;;;4973552;28;20300;-71
2021/11/28 11:54:06;;;;;;;1999.90;999.90;;;;;;;;;;4973592;28;20205;-69
2021/11/28 11:56:57;;;;;;;1999.90;999.90;;;;;;;;;;4971042;28;20438;-71
2021/11/28 11:59:55;;;;;;;1999.90;999.90;;;;;;;;;;4972975;28;20213;-71
2021/11/28 12:02:42;;;;;;;1999.90;999.90;;;;;;;;;;4957618;28;20241;-70
2021/11/28 12:05:35;;;;;;;1999.90;999.90;;;;;;;;;;4958822;28;20218;-71
2021/11/28 12:08:23;;;;;;;1999.90;999.90;;;;;;;;;;4972734;28;20214;-71
2021/11/28 12:11:11;;;;;;;1999.90;999.90;;;;;;;;;;4970584;28;20237;-71
2021/11/28 12:13:58;;;;;;;1999.90;999.90;;;;;;;;;;4986373;28;20233;-70
2021/11/28 12:16:43;;;;;;;1999.90;999.90;;;;;;;;;;4954085;28;20282;-70
2021/11/28 12:19:38;;;;;;;1999.90;999.90;;;;;;;;;;4953052;29;20780;-69
2021/11/28 12:22:44;;;;;;;1999.90;999.90;;;;;;;;;;4953903;29;20702;-70
2021/11/28 12:25:44;;;;;;;1999.90;999.90;;;;;;;;;;4960073;28;20699;-70
2021/11/28 12:28:29;;;;;;;1999.90;999.90;;;;;;;;;;4960289;28;20343;-68
2021/11/28 12:31:24;;;;;;;1999.90;999.90;;;;;;;;;;4972133;28;20361;-70
2021/11/28 12:34:10;;;;;;;1999.90;999.90;;;;;;;;;;4968862;28;20364;-71
2021/11/28 12:36:55;;;;;;;1999.90;999.90;;;;;;;;;;4972847;28;20215;-69
2021/11/28 12:39:40;;;;;;;1999.90;999.90;;;;;;;;;;4972349;28;20217;-70
2021/11/28 12:42:41;;;;;;;1999.90;999.90;;;;;;;;;;4964738;28;20362;-72
2021/11/28 12:45:30;;;;;;;1999.90;999.90;;;;;;;;;;4952815;29;20990;-70
2021/11/28 12:48:19;;;;;;;1999.90;999.90;;;;;;;;;;4954899;28;20205;-71
2021/11/28 12:51:05;;;;;;;1999.90;999.90;;;;;;;;;;4976123;28;20345;-71
2021/11/28 12:53:59;;;;;;;1999.90;999.90;;;;;;;;;;4976700;28;20244;-69
2021/11/28 12:56:44;;;;;;;1999.90;999.90;;;;;;;;;;4971134;28;20287;-69
2021/11/28 12:59:31;;;;;;;1999.90;999.90;;;;;;;;;;4957190;29;20217;-70
2021/11/28 13:02:36;;;;;;;1999.90;999.90;;;;;;;;;;4962612;28;20249;-70
2021/11/28 13:05:36;;;;;;;1999.90;999.90;;;;;;;;;;4964595;28;20211;-73
2021/11/28 13:08:34;;;;;;;1999.90;999.90;;;;;;;;;;4976236;28;20582;-72
2021/11/28 13:11:26;;;;;;;1999.90;999.90;;;;;;;;;;4976931;28;20599;-70
2021/11/28 13:14:12;;;;;;;1999.90;999.90;;;;;;;;;;4962261;28;20256;-71
2021/11/28 13:16:58;;;;;;;1999.90;999.90;;;;;;;;;;4967869;28;20783;-70
2021/11/28 13:19:47;;;;;;;1999.90;999.90;;;;;;;;;;4968056;28;20723;-70
2021/11/28 13:22:37;;;;;;;1999.90;999.90;;;;;;;;;;4969970;28;20454;-69
2021/11/28 13:25:30;;;;;;;1999.90;999.90;;;;;;;;;;4976848;28;20730;-70
2021/11/28 13:28:17;;;;;;;1999.90;999.90;;;;;;;;;;4975988;28;20344;-71
2021/11/28 13:31:06;;;;;;;1999.90;999.90;;;;;;;;;;4972581;28;20216;-70
2021/11/28 13:33:57;;;;;;;1999.90;999.90;;;;;;;;;;4974382;28;20706;-69
2021/11/28 13:36:44;;;;;;;1999.90;999.90;;;;;;;;;;4972701;28;20208;-69
2021/11/28 13:39:30;;;;;;;1999.90;999.90;;;;;;;;;;4970092;28;20223;-72
2021/11/28 13:42:15;;;;;;;1999.90;999.90;;;;;;;;;;4973458;28;20509;-71
2021/11/28 13:45:09;;;;;;;1999.90;999.90;;;;;;;;;;4975906;28;20208;-71
2021/11/28 13:47:54;;;;;;;1999.90;999.90;;;;;;;;;;4975509;28;20208;-70
2021/11/28 13:50:44;;;;;;;1999.90;999.90;;;;;;;;;;4975644;28;20578;-71
2021/11/28 13:53:30;;;;;;;1999.90;999.90;;;;;;;;;;4975139;28;20229;-70
2021/11/28 13:56:14;;;;;;;1999.90;999.90;;;;;;;;;;4973773;28;20207;-70
2021/11/28 13:59:03;;;;;;;1999.90;999.90;;;;;;;;;;4970745;28;20215;-69
2021/11/28 14:02:05;;;;;;;1999.90;999.90;;;;;;;;;;4959690;28;20236;-69
2021/11/28 14:04:51;;;;;;;1999.90;999.90;;;;;;;;;;4963896;28;20218;-71
2021/11/28 14:07:40;;;;;;;1999.90;999.90;;;;;;;;;;4967934;28;20443;-71
2021/11/28 14:10:27;;;;;;;1999.90;999.90;;;;;;;;;;4975134;28;20204;-70
2021/11/28 14:13:14;;;;;;;1999.90;999.90;;;;;;;;;;4970837;28;20579;-71
2021/11/28 14:15:59;;;;;;;1999.90;999.90;;;;;;;;;;4973037;28;20208;-71
2021/11/28 14:18:44;;;;;;;1999.90;999.90;;;;;;;;;;4964723;28;20212;-71
2021/11/28 14:21:33;;;;;;;1999.90;999.90;;;;;;;;;;4967928;28;20328;-69
2021/11/28 14:24:29;;;;;;;1999.90;999.90;;;;;;;;;;4963504;28;20220;-71
2021/11/28 14:27:15;;;;;;;1999.90;999.90;;;;;;;;;;4975082;28;20212;-71
2021/11/28 14:30:01;;;;;;;1999.90;999.90;;;;;;;;;;4965543;28;20821;-71
2021/11/28 14:32:58;;;;;;;1999.90;999.90;;;;;;;;;;4968711;28;20231;-70
2021/11/28 14:35:48;;;;;;;1999.90;999.90;;;;;;;;;;4969101;28;20213;-71
2021/11/28 14:38:35;;;;;;;1999.90;999.90;;;;;;;;;;4955422;29;20208;-71
2021/11/28 14:41:23;;;;;;;1999.90;999.90;;;;;;;;;;4962482;28;20278;-70
2021/11/28 14:44:08;;;;;;;1999.90;999.90;;;;;;;;;;4971022;28;20208;-69
2021/11/28 14:46:53;;;;;;;1999.90;999.90;;;;;;;;;;4970464;28;20228;-70
2021/11/28 14:49:41;;;;;;;1999.90;999.90;;;;;;;;;;4956971;28;20352;-69
2021/11/28 14:52:31;;;;;;;1999.90;999.90;;;;;;;;;;4971373;28;20271;-70
2021/11/28 14:55:18;;;;;;;1999.90;999.90;;;;;;;;;;4959850;28;20208;-69
2021/11/28 14:58:05;;;;;;;1999.90;999.90;;;;;;;;;;4959416;28;20215;-70
2021/11/28 15:00:49;;;;;;;1999.90;999.90;;;;;;;;;;4967530;28;20344;-70
2021/11/28 15:03:34;;;;;;;1999.90;999.90;;;;;;;;;;4954072;28;20943;-70
2021/11/28 15:06:19;;;;;;;1999.90;999.90;;;;;;;;;;4958673;28;20208;-70
2021/11/28 15:09:15;;;;;;;1999.90;999.90;;;;;;;;;;4959332;28;20357;-69
2021/11/28 15:12:02;;;;;;;1999.90;999.90;;;;;;;;;;4970633;28;20223;-71
2021/11/28 15:14:48;;;;;;;1999.90;999.90;;;;;;;;;;4974210;28;20343;-69
2021/11/28 15:17:34;;;;;;;1999.90;999.90;;;;;;;;;;4954837;29;20235;-71
2021/11/28 15:20:20;;;;;;;1999.90;999.90;;;;;;;;;;4956717;28;20615;-70
2021/11/28 15:23:05;;;;;;;1999.90;999.90;;;;;;;;;;4973413;28;20278;-73
2021/11/28 15:25:50;;;;;;;1999.90;999.90;;;;;;;;;;4975796;28;20256;-68
2021/11/28 15:28:35;;;;;;;1999.90;999.90;;;;;;;;;;4961361;28;20689;-70
2021/11/28 15:31:21;;;;;;;1999.90;999.90;;;;;;;;;;4968304;28;20452;-69